Ebisu Maru — JD3260 — position and weather

sailwx.info

Track history (hours):
 
Tides and Currents Weather Stations Pressure Air Temp Water Temp Dewpoint Dewpoint Depression Visibility Wind Speed Wind Dir Waves Ship Positions

Ebisu Maru

Last reported at 2017-Nov-15 20:15 UTC. Time now 2017-Nov-22 16:37 UTC.
Position N 34°04' E 135°02'.

Length 73 m; draft 4.2 m.

Type: Cargo ship. MMSI: 431003062.

Date/timePositionNaut miles runAvg speedWind from/ knotsBaromVisibWave heightAir tempDewpointWater temp
2017-Nov-15 20:15N 34°04' E 135°02'311.3
2017-Nov-15 20:00N 34°07' E 135°02'611.1
2017-Nov-15 19:30N 34°12' E 135°02'910.5
2017-Nov-15 18:42N 34°20' E 135°05'611.5
2017-Nov-15 18:12N 34°25' E 135°10'411.9
2017-Nov-15 17:54N 34°27' E 135°12'511.8
2017-Nov-15 17:29N 34°31' E 135°16'511.4
2017-Nov-15 17:01N 34°36' E 135°20'510.7
2017-Nov-15 16:31N 34°39' E 135°25'2 1.1
2017-Nov-15 14:26N 34°38' E 135°28'0 0.0
2017-Nov-15 13:50N 34°38' E 135°28'0 0.0
2017-Nov-15 13:20N 34°38' E 135°28'0 0.0
2017-Nov-15 12:56N 34°38' E 135°28'0 0.0
2017-Nov-15 12:26N 34°38' E 135°28'0 0.0
2017-Nov-15 11:50N 34°38' E 135°28'0 0.0
2017-Nov-15 11:14N 34°38' E 135°28'0 0.0
2017-Nov-15 10:50N 34°38' E 135°28'0 0.0
2017-Nov-15 10:26N 34°38' E 135°28'0 0.0
2017-Nov-15 09:50N 34°38' E 135°28'0 0.0
2017-Nov-15 09:08N 34°38' E 135°28'0 0.0
2017-Nov-15 07:44N 34°38' E 135°28'0 0.0
2017-Nov-15 07:25N 34°38' E 135°28'3 7.2
2017-Nov-15 07:00N 34°39' E 135°24'510.6
2017-Nov-15 06:30N 34°33' E 135°23'3 0.4
2017-Nov-15 00:09N 34°31' E 135°24'0 0.0
2017-Nov-14 06:03N 34°31' E 135°24'0 0.0
2017-Nov-13 23:27N 34°31' E 135°24'0 0.0
2017-Nov-13 22:51N 34°31' E 135°24'0 0.0
2017-Nov-13 22:27N 34°31' E 135°24'0 0.4
2017-Nov-13 21:55N 34°31' E 135°24'1 0.0
2017-Nov-12 23:26N 34°31' E 135°24'3 6.1
2017-Nov-12 23:00N 34°32' E 135°22'0 0.1
2017-Nov-12 20:50N 34°32' E 135°21'0 0.0
2017-Nov-12 20:26N 34°32' E 135°21'0 0.0
2017-Nov-12 19:56N 34°32' E 135°21'0 0.0
2017-Nov-12 19:26N 34°32' E 135°21'0 0.0
2017-Nov-12 18:56N 34°32' E 135°21'0 0.0
2017-Nov-12 18:26N 34°32' E 135°21'0 0.0
2017-Nov-12 17:38N 34°32' E 135°21'0 0.0
2017-Nov-12 17:26N 34°32' E 135°21'0 0.0
2017-Nov-12 16:56N 34°32' E 135°21'0 0.0
2017-Nov-12 16:20N 34°32' E 135°21'0 0.0
2017-Nov-12 15:44N 34°32' E 135°21'0 0.0
2017-Nov-12 15:20N 34°32' E 135°21'0 0.0
2017-Nov-12 14:56N 34°32' E 135°21'0 0.0
2017-Nov-12 14:26N 34°32' E 135°21'0 1.1
2017-Nov-12 14:00N 34°32' E 135°21'4 9.0
2017-Nov-12 13:30N 34°29' E 135°17'510.7
2017-Nov-12 13:00N 34°26' E 135°11'610.4
2017-Nov-12 12:24N 34°21' E 135°06'7 9.6
2017-Nov-12 11:41N 34°15' E 135°03'210.8
2017-Nov-12 11:30N 34°13' E 135°03'  
Track history (hours):
 
Tides and Currents Weather Stations Pressure Air Temp Water Temp Dewpoint Dewpoint Depression Visibility Wind Speed Wind Dir Waves Ship Positions

Ebisu Maru

Last reported at 2017-Nov-15 20:15 UTC. Time now 2017-Nov-22 16:37 UTC.
Position N 34°04' E 135°02'.

Length 73 m; draft 4.2 m.

Type: Cargo ship. MMSI: 431003062.

Date/timePositionNaut miles runAvg speedWind from/ knotsBaromVisibWave heightAir tempDewpointWater temp
2017-Nov-15 20:15N 34°04' E 135°02'311.3
2017-Nov-15 20:00N 34°07' E 135°02'611.1
2017-Nov-15 19:30N 34°12' E 135°02'910.5
2017-Nov-15 18:42N 34°20' E 135°05'611.5
2017-Nov-15 18:12N 34°25' E 135°10'411.9
2017-Nov-15 17:54N 34°27' E 135°12'511.8
2017-Nov-15 17:29N 34°31' E 135°16'511.4
2017-Nov-15 17:01N 34°36' E 135°20'510.7
2017-Nov-15 16:31N 34°39' E 135°25'2 1.1
2017-Nov-15 14:26N 34°38' E 135°28'0 0.0
2017-Nov-15 13:50N 34°38' E 135°28'0 0.0
2017-Nov-15 13:20N 34°38' E 135°28'0 0.0
2017-Nov-15 12:56N 34°38' E 135°28'0 0.0
2017-Nov-15 12:26N 34°38' E 135°28'0 0.0
2017-Nov-15 11:50N 34°38' E 135°28'0 0.0
2017-Nov-15 11:14N 34°38' E 135°28'0 0.0
2017-Nov-15 10:50N 34°38' E 135°28'0 0.0
2017-Nov-15 10:26N 34°38' E 135°28'0 0.0
2017-Nov-15 09:50N 34°38' E 135°28'0 0.0
2017-Nov-15 09:08N 34°38' E 135°28'0 0.0
2017-Nov-15 07:44N 34°38' E 135°28'0 0.0
2017-Nov-15 07:25N 34°38' E 135°28'3 7.2
2017-Nov-15 07:00N 34°39' E 135°24'510.6
2017-Nov-15 06:30N 34°33' E 135°23'3 0.4
2017-Nov-15 00:09N 34°31' E 135°24'0 0.0
2017-Nov-14 06:03N 34°31' E 135°24'0 0.0
2017-Nov-13 23:27N 34°31' E 135°24'0 0.0
2017-Nov-13 22:51N 34°31' E 135°24'0 0.0
2017-Nov-13 22:27N 34°31' E 135°24'0 0.4
2017-Nov-13 21:55N 34°31' E 135°24'1 0.0
2017-Nov-12 23:26N 34°31' E 135°24'3 6.1
2017-Nov-12 23:00N 34°32' E 135°22'0 0.1
2017-Nov-12 20:50N 34°32' E 135°21'0 0.0
2017-Nov-12 20:26N 34°32' E 135°21'0 0.0
2017-Nov-12 19:56N 34°32' E 135°21'0 0.0
2017-Nov-12 19:26N 34°32' E 135°21'0 0.0
2017-Nov-12 18:56N 34°32' E 135°21'0 0.0
2017-Nov-12 18:26N 34°32' E 135°21'0 0.0
2017-Nov-12 17:38N 34°32' E 135°21'0 0.0
2017-Nov-12 17:26N 34°32' E 135°21'0 0.0
2017-Nov-12 16:56N 34°32' E 135°21'0 0.0
2017-Nov-12 16:20N 34°32' E 135°21'0 0.0
2017-Nov-12 15:44N 34°32' E 135°21'0 0.0
2017-Nov-12 15:20N 34°32' E 135°21'0 0.0
2017-Nov-12 14:56N 34°32' E 135°21'0 0.0
2017-Nov-12 14:26N 34°32' E 135°21'0 1.1
2017-Nov-12 14:00N 34°32' E 135°21'4 9.0
2017-Nov-12 13:30N 34°29' E 135°17'510.7
2017-Nov-12 13:00N 34°26' E 135°11'610.4
2017-Nov-12 12:24N 34°21' E 135°06'7 9.6
2017-Nov-12 11:41N 34°15' E 135°03'210.8
2017-Nov-12 11:30N 34°13' E 135°03'  

Dump ship's entire track history